TimeCDT,TemperatureF,Dew PointF,Humidity,Sea Level PressureIn,VisibilityMPH,Wind Direction,Wind SpeedMPH,Gust SpeedMPH,PrecipitationIn,Events,Conditions,WindDirDegrees,DateUTC
12:56 AM,62.1,60.1,93,30.16,8.0,Calm,Calm,-,N/A,,Scattered Clouds,0,2012-10-11 05:56:00
1:56 AM,61.0,59.0,93,30.16,8.0,NNW,3.5,-,N/A,,Scattered Clouds,340,2012-10-11 06:56:00
2:56 AM,63.0,60.1,90,30.16,10.0,NE,3.5,-,N/A,,Clear,50,2012-10-11 07:56:00
3:56 AM,62.1,60.1,93,30.16,10.0,NNW,3.5,-,N/A,,Clear,330,2012-10-11 08:56:00
4:56 AM,62.1,59.0,90,30.18,7.0,Calm,Calm,-,N/A,,Clear,0,2012-10-11 09:56:00
5:56 AM,61.0,59.0,93,30.19,7.0,Calm,Calm,-,N/A,,Clear,0,2012-10-11 10:56:00
6:56 AM,61.0,59.0,93,30.20,7.0,NE,4.6,-,N/A,,Clear,40,2012-10-11 11:56:00
7:56 AM,64.0,61.0,90,30.22,7.0,NE,3.5,-,N/A,,Clear,40,2012-10-11 12:56:00
8:56 AM,69.1,62.1,78,30.23,10.0,ENE,5.8,-,N/A,,Clear,70,2012-10-11 13:56:00
9:56 AM,73.9,63.0,68,30.25,10.0,Calm,Calm,-,N/A,,Clear,0,2012-10-11 14:56:00
10:56 AM,78.1,61.0,56,30.24,10.0,Calm,Calm,-,N/A,,Clear,0,2012-10-11 15:56:00
11:56 AM,80.1,61.0,52,30.24,10.0,East,6.9,-,N/A,,Partly Cloudy,100,2012-10-11 16:56:00
12:56 PM,81.0,60.1,49,30.22,10.0,Calm,Calm,-,N/A,,Partly Cloudy,0,2012-10-11 17:56:00
1:56 PM,82.9,60.1,46,30.19,10.0,North,6.9,-,N/A,,Partly Cloudy,360,2012-10-11 18:56:00
2:56 PM,82.9,60.1,46,30.18,10.0,Variable,5.8,-,N/A,,Partly Cloudy,0,2012-10-11 19:56:00
3:56 PM,82.9,60.1,46,30.17,10.0,NNE,5.8,-,N/A,,Partly Cloudy,30,2012-10-11 20:56:00
4:56 PM,82.9,61.0,47,30.17,10.0,North,3.5,-,N/A,,Partly Cloudy,10,2012-10-11 21:56:00
5:56 PM,80.1,62.1,54,30.18,10.0,NE,3.5,-,N/A,,Partly Cloudy,50,2012-10-11 22:56:00
6:56 PM,72.0,63.0,73,30.19,10.0,SW,4.6,-,N/A,,Partly Cloudy,220,2012-10-11 23:56:00
7:56 PM,68.0,62.1,81,30.20,10.0,Calm,Calm,-,N/A,,Clear,0,2012-10-12 00:56:00
8:56 PM,66.0,61.0,84,30.22,10.0,Calm,Calm,-,N/A,,Clear,0,2012-10-12 01:56:00
9:56 PM,64.9,62.1,90,30.22,8.0,Calm,Calm,-,N/A,,Clear,0,2012-10-12 02:56:00
10:56 PM,63.0,61.0,93,30.22,8.0,Calm,Calm,-,N/A,,Clear,0,2012-10-12 03:56:00
11:56 PM,62.1,60.1,93,30.22,8.0,Calm,Calm,-,N/A,,Clear,0,2012-10-12 04:56:00